sensor_id;sensor_type;location;lat;lon;timestamp;temperature;humidity
796;DHT22;381;48.770;9.188;2022-07-03T00:05:00;20.30;96.30
796;DHT22;381;48.770;9.188;2022-07-03T00:10:04;20.30;95.90
796;DHT22;381;48.770;9.188;2022-07-03T00:15:07;20.30;96.10
796;DHT22;381;48.770;9.188;2022-07-03T00:20:10;20.30;96.80
796;DHT22;381;48.770;9.188;2022-07-03T00:25:14;20.30;97.00
796;DHT22;381;48.770;9.188;2022-07-03T00:30:16;20.30;96.80
796;DHT22;381;48.770;9.188;2022-07-03T00:35:18;20.30;96.80
796;DHT22;381;48.770;9.188;2022-07-03T00:40:23;20.30;96.80
796;DHT22;381;48.770;9.188;2022-07-03T00:45:26;20.20;97.30
796;DHT22;381;48.770;9.188;2022-07-03T00:50:35;20.20;97.10
796;DHT22;381;48.770;9.188;2022-07-03T00:55:39;20.20;97.30
796;DHT22;381;48.770;9.188;2022-07-03T01:00:43;20.20;96.90
796;DHT22;381;48.770;9.188;2022-07-03T01:05:50;20.10;97.70
796;DHT22;381;48.770;9.188;2022-07-03T01:11:03;20.10;97.40
796;DHT22;381;48.770;9.188;2022-07-03T01:16:19;20.10;98.10
796;DHT22;381;48.770;9.188;2022-07-03T01:21:33;20.00;97.90
796;DHT22;381;48.770;9.188;2022-07-03T01:26:39;20.00;97.90
796;DHT22;381;48.770;9.188;2022-07-03T01:31:43;20.00;98.20
796;DHT22;381;48.770;9.188;2022-07-03T01:36:50;20.00;98.70
796;DHT22;381;48.770;9.188;2022-07-03T01:41:59;20.00;98.80
796;DHT22;381;48.770;9.188;2022-07-03T01:47:02;20.00;98.50
796;DHT22;381;48.770;9.188;2022-07-03T01:52:05;20.00;98.60
796;DHT22;381;48.770;9.188;2022-07-03T01:57:09;20.00;98.80
796;DHT22;381;48.770;9.188;2022-07-03T02:02:18;20.00;98.90
796;DHT22;381;48.770;9.188;2022-07-03T02:07:29;20.00;98.30
796;DHT22;381;48.770;9.188;2022-07-03T02:12:45;19.90;98.30
796;DHT22;381;48.770;9.188;2022-07-03T02:17:51;19.90;98.20
796;DHT22;381;48.770;9.188;2022-07-03T02:22:57;19.90;98.90
796;DHT22;381;48.770;9.188;2022-07-03T02:28:04;19.80;98.10
796;DHT22;381;48.770;9.188;2022-07-03T02:33:10;19.80;99.30
796;DHT22;381;48.770;9.188;2022-07-03T02:38:16;19.80;99.40
796;DHT22;381;48.770;9.188;2022-07-03T02:43:26;19.80;99.50
796;DHT22;381;48.770;9.188;2022-07-03T02:48:33;19.70;99.30
796;DHT22;381;48.770;9.188;2022-07-03T02:53:41;19.70;99.80
796;DHT22;381;48.770;9.188;2022-07-03T02:59:05;19.70;99.90
796;DHT22;381;48.770;9.188;2022-07-03T03:04:15;19.60;99.90
796;DHT22;381;48.770;9.188;2022-07-03T03:09:26;19.60;99.90
796;DHT22;381;48.770;9.188;2022-07-03T03:14:36;19.60;99.80
796;DHT22;381;48.770;9.188;2022-07-03T03:19:40;19.60;99.90
796;DHT22;381;48.770;9.188;2022-07-03T03:24:43;19.60;99.90
796;DHT22;381;48.770;9.188;2022-07-03T03:29:47;19.50;99.90
796;DHT22;381;48.770;9.188;2022-07-03T03:34:50;19.50;99.90
796;DHT22;381;48.770;9.188;2022-07-03T03:39:52;19.50;99.90
796;DHT22;381;48.770;9.188;2022-07-03T03:44:55;19.50;99.90
796;DHT22;381;48.770;9.188;2022-07-03T03:49:58;19.50;99.90
796;DHT22;381;48.770;9.188;2022-07-03T03:55:00;19.50;99.90
796;DHT22;381;48.770;9.188;2022-07-03T04:00:05;19.50;99.90
796;DHT22;381;48.770;9.188;2022-07-03T04:05:13;19.50;99.90
796;DHT22;381;48.770;9.188;2022-07-03T04:10:15;19.50;99.90
796;DHT22;381;48.770;9.188;2022-07-03T04:15:19;19.50;99.90
796;DHT22;381;48.770;9.188;2022-07-03T04:20:21;19.50;99.90
796;DHT22;381;48.770;9.188;2022-07-03T04:25:23;19.50;99.90
796;DHT22;381;48.770;9.188;2022-07-03T04:30:27;19.50;99.90
796;DHT22;381;48.770;9.188;2022-07-03T04:35:29;19.50;99.90
796;DHT22;381;48.770;9.188;2022-07-03T04:40:31;19.50;99.90
796;DHT22;381;48.770;9.188;2022-07-03T04:45:34;19.50;99.90
796;DHT22;381;48.770;9.188;2022-07-03T04:50:36;19.60;99.90
796;DHT22;381;48.770;9.188;2022-07-03T04:55:39;19.60;99.90
796;DHT22;381;48.770;9.188;2022-07-03T05:00:42;19.60;99.90
796;DHT22;381;48.770;9.188;2022-07-03T05:05:45;19.60;99.90
796;DHT22;381;48.770;9.188;2022-07-03T05:10:47;19.60;99.90
796;DHT22;381;48.770;9.188;2022-07-03T05:15:50;19.60;99.90
796;DHT22;381;48.770;9.188;2022-07-03T05:20:52;19.70;99.90
796;DHT22;381;48.770;9.188;2022-07-03T05:25:54;19.70;99.90
796;DHT22;381;48.770;9.188;2022-07-03T05:30:58;19.70;99.90
796;DHT22;381;48.770;9.188;2022-07-03T05:36:03;19.80;99.90
796;DHT22;381;48.770;9.188;2022-07-03T05:41:05;19.90;99.90
796;DHT22;381;48.770;9.188;2022-07-03T05:46:11;19.90;99.90
796;DHT22;381;48.770;9.188;2022-07-03T05:51:13;20.00;99.90
796;DHT22;381;48.770;9.188;2022-07-03T05:56:18;20.00;99.90
796;DHT22;381;48.770;9.188;2022-07-03T06:01:23;20.10;99.90
796;DHT22;381;48.770;9.188;2022-07-03T06:06:25;20.20;99.90
796;DHT22;381;48.770;9.188;2022-07-03T06:11:27;20.30;99.90
796;DHT22;381;48.770;9.188;2022-07-03T06:16:30;20.40;99.90
796;DHT22;381;48.770;9.188;2022-07-03T06:21:34;20.40;99.90
796;DHT22;381;48.770;9.188;2022-07-03T06:26:36;20.50;99.90
796;DHT22;381;48.770;9.188;2022-07-03T06:31:39;20.60;99.90
796;DHT22;381;48.770;9.188;2022-07-03T06:36:41;20.80;99.90
796;DHT22;381;48.770;9.188;2022-07-03T06:41:43;20.90;99.90
796;DHT22;381;48.770;9.188;2022-07-03T06:46:47;21.10;99.90
796;DHT22;381;48.770;9.188;2022-07-03T06:51:49;21.40;99.90
796;DHT22;381;48.770;9.188;2022-07-03T06:56:51;21.70;99.90
796;DHT22;381;48.770;9.188;2022-07-03T07:01:55;22.10;99.90
796;DHT22;381;48.770;9.188;2022-07-03T07:06:57;22.50;99.40
796;DHT22;381;48.770;9.188;2022-07-03T07:11:59;22.90;97.50
796;DHT22;381;48.770;9.188;2022-07-03T07:17:03;23.20;95.90
796;DHT22;381;48.770;9.188;2022-07-03T07:22:05;23.60;95.10
796;DHT22;381;48.770;9.188;2022-07-03T07:27:07;24.10;93.20
796;DHT22;381;48.770;9.188;2022-07-03T07:32:11;24.60;93.70
796;DHT22;381;48.770;9.188;2022-07-03T07:37:13;25.10;92.10
796;DHT22;381;48.770;9.188;2022-07-03T07:42:15;25.60;90.30
796;DHT22;381;48.770;9.188;2022-07-03T07:47:19;26.10;89.10
796;DHT22;381;48.770;9.188;2022-07-03T07:52:21;26.80;89.60
796;DHT22;381;48.770;9.188;2022-07-03T07:57:24;27.20;82.90
796;DHT22;381;48.770;9.188;2022-07-03T08:02:28;27.80;82.20
796;DHT22;381;48.770;9.188;2022-07-03T08:07:47;28.20;82.70
796;DHT22;381;48.770;9.188;2022-07-03T08:12:49;28.60;80.30
796;DHT22;381;48.770;9.188;2022-07-03T08:17:53;29.10;75.30
796;DHT22;381;48.770;9.188;2022-07-03T08:22:55;29.50;76.50
796;DHT22;381;48.770;9.188;2022-07-03T08:27:58;29.90;69.90
796;DHT22;381;48.770;9.188;2022-07-03T08:33:01;30.20;69.80
796;DHT22;381;48.770;9.188;2022-07-03T08:38:03;30.50;70.40
796;DHT22;381;48.770;9.188;2022-07-03T08:43:06;30.80;68.40
796;DHT22;381;48.770;9.188;2022-07-03T08:48:09;31.10;67.00
796;DHT22;381;48.770;9.188;2022-07-03T08:53:12;31.50;64.70
796;DHT22;381;48.770;9.188;2022-07-03T08:58:15;31.70;63.30
796;DHT22;381;48.770;9.188;2022-07-03T09:03:23;32.00;59.90
796;DHT22;381;48.770;9.188;2022-07-03T09:08:27;32.30;59.60
796;DHT22;381;48.770;9.188;2022-07-03T09:13:32;32.50;57.70
796;DHT22;381;48.770;9.188;2022-07-03T09:18:40;32.80;58.00
796;DHT22;381;48.770;9.188;2022-07-03T09:23:43;33.20;55.10
796;DHT22;381;48.770;9.188;2022-07-03T09:28:48;33.40;53.80
796;DHT22;381;48.770;9.188;2022-07-03T09:33:57;33.50;53.40
796;DHT22;381;48.770;9.188;2022-07-03T09:39:00;33.80;52.80
796;DHT22;381;48.770;9.188;2022-07-03T09:44:04;34.30;50.40
796;DHT22;381;48.770;9.188;2022-07-03T09:49:07;35.00;50.30
796;DHT22;381;48.770;9.188;2022-07-03T09:54:14;35.90;49.30
796;DHT22;381;48.770;9.188;2022-07-03T09:59:17;36.80;47.40
796;DHT22;381;48.770;9.188;2022-07-03T10:04:22;37.60;47.70
796;DHT22;381;48.770;9.188;2022-07-03T10:09:25;37.80;46.20
796;DHT22;381;48.770;9.188;2022-07-03T10:14:29;38.80;42.80
796;DHT22;381;48.770;9.188;2022-07-03T10:19:38;39.90;44.30
796;DHT22;381;48.770;9.188;2022-07-03T10:24:42;40.30;42.50
796;DHT22;381;48.770;9.188;2022-07-03T10:29:46;39.40;43.00
796;DHT22;381;48.770;9.188;2022-07-03T10:34:50;37.60;44.80
796;DHT22;381;48.770;9.188;2022-07-03T10:39:57;35.70;45.10
796;DHT22;381;48.770;9.188;2022-07-03T10:45:23;34.30;47.30
796;DHT22;381;48.770;9.188;2022-07-03T10:50:26;33.00;48.70
796;DHT22;381;48.770;9.188;2022-07-03T10:55:28;32.00;51.70
796;DHT22;381;48.770;9.188;2022-07-03T11:00:31;31.20;53.20
796;DHT22;381;48.770;9.188;2022-07-03T11:05:43;30.50;53.80
796;DHT22;381;48.770;9.188;2022-07-03T11:10:45;29.90;54.40
796;DHT22;381;48.770;9.188;2022-07-03T11:16:22;29.40;54.40
796;DHT22;381;48.770;9.188;2022-07-03T11:21:33;29.00;56.60
796;DHT22;381;48.770;9.188;2022-07-03T11:26:38;28.70;59.00
796;DHT22;381;48.770;9.188;2022-07-03T11:31:40;28.40;58.00
796;DHT22;381;48.770;9.188;2022-07-03T11:36:44;28.20;57.50
796;DHT22;381;48.770;9.188;2022-07-03T11:41:46;28.10;57.00
796;DHT22;381;48.770;9.188;2022-07-03T11:46:50;27.90;58.00
796;DHT22;381;48.770;9.188;2022-07-03T11:51:59;27.80;59.00
796;DHT22;381;48.770;9.188;2022-07-03T11:57:02;27.80;58.20
796;DHT22;381;48.770;9.188;2022-07-03T12:02:04;27.80;59.50
796;DHT22;381;48.770;9.188;2022-07-03T12:07:08;27.90;58.80
796;DHT22;381;48.770;9.188;2022-07-03T12:12:11;27.80;59.90
796;DHT22;381;48.770;9.188;2022-07-03T12:17:14;27.80;60.60
796;DHT22;381;48.770;9.188;2022-07-03T12:22:29;27.80;61.20
796;DHT22;381;48.770;9.188;2022-07-03T12:27:35;27.80;59.70
796;DHT22;381;48.770;9.188;2022-07-03T12:32:39;27.80;59.60
796;DHT22;381;48.770;9.188;2022-07-03T12:37:42;27.90;59.40
796;DHT22;381;48.770;9.188;2022-07-03T12:42:46;27.90;60.00
796;DHT22;381;48.770;9.188;2022-07-03T12:47:57;27.90;58.20
796;DHT22;381;48.770;9.188;2022-07-03T12:53:01;27.90;58.40
796;DHT22;381;48.770;9.188;2022-07-03T12:58:11;27.90;59.00
796;DHT22;381;48.770;9.188;2022-07-03T13:03:35;27.90;57.50
796;DHT22;381;48.770;9.188;2022-07-03T13:08:49;27.80;59.70
796;DHT22;381;48.770;9.188;2022-07-03T13:13:51;27.70;58.70
796;DHT22;381;48.770;9.188;2022-07-03T13:18:57;27.80;58.10
796;DHT22;381;48.770;9.188;2022-07-03T13:24:00;27.70;60.40
796;DHT22;381;48.770;9.188;2022-07-03T13:29:03;27.90;58.90
796;DHT22;381;48.770;9.188;2022-07-03T13:34:06;28.20;60.90
796;DHT22;381;48.770;9.188;2022-07-03T13:39:09;28.30;60.10
796;DHT22;381;48.770;9.188;2022-07-03T13:44:11;28.40;62.40
796;DHT22;381;48.770;9.188;2022-07-03T13:49:13;28.40;61.00
796;DHT22;381;48.770;9.188;2022-07-03T13:54:17;28.40;60.70
796;DHT22;381;48.770;9.188;2022-07-03T13:59:19;28.50;59.10
796;DHT22;381;48.770;9.188;2022-07-03T14:04:23;28.40;59.80
796;DHT22;381;48.770;9.188;2022-07-03T14:09:27;28.30;59.50
796;DHT22;381;48.770;9.188;2022-07-03T14:14:29;28.10;59.40
796;DHT22;381;48.770;9.188;2022-07-03T14:19:31;27.90;64.90
796;DHT22;381;48.770;9.188;2022-07-03T14:24:34;27.20;71.60
796;DHT22;381;48.770;9.188;2022-07-03T14:29:37;26.60;72.70
796;DHT22;381;48.770;9.188;2022-07-03T14:34:56;26.30;70.60
796;DHT22;381;48.770;9.188;2022-07-03T14:40:00;26.20;69.50
796;DHT22;381;48.770;9.188;2022-07-03T14:45:03;26.20;69.40
796;DHT22;381;48.770;9.188;2022-07-03T14:50:06;26.20;69.00
796;DHT22;381;48.770;9.188;2022-07-03T14:55:10;26.30;68.90
796;DHT22;381;48.770;9.188;2022-07-03T15:00:14;26.50;67.40
796;DHT22;381;48.770;9.188;2022-07-03T15:05:17;26.60;66.20
796;DHT22;381;48.770;9.188;2022-07-03T15:10:21;26.80;66.10
796;DHT22;381;48.770;9.188;2022-07-03T15:15:24;26.90;65.30
796;DHT22;381;48.770;9.188;2022-07-03T15:20:30;26.90;67.20
796;DHT22;381;48.770;9.188;2022-07-03T15:25:37;26.90;67.00
796;DHT22;381;48.770;9.188;2022-07-03T15:30:47;27.00;66.10
796;DHT22;381;48.770;9.188;2022-07-03T15:35:53;26.90;64.00
796;DHT22;381;48.770;9.188;2022-07-03T15:40:58;26.90;63.20
796;DHT22;381;48.770;9.188;2022-07-03T15:46:05;26.90;63.80
796;DHT22;381;48.770;9.188;2022-07-03T15:51:15;27.00;61.10
796;DHT22;381;48.770;9.188;2022-07-03T15:56:25;27.00;62.60
796;DHT22;381;48.770;9.188;2022-07-03T16:01:29;27.10;62.00
796;DHT22;381;48.770;9.188;2022-07-03T16:06:52;27.10;61.80
796;DHT22;381;48.770;9.188;2022-07-03T16:11:57;27.10;61.80
796;DHT22;381;48.770;9.188;2022-07-03T16:17:02;27.10;60.30
796;DHT22;381;48.770;9.188;2022-07-03T16:22:05;27.20;59.90
796;DHT22;381;48.770;9.188;2022-07-03T16:27:14;27.20;59.50
796;DHT22;381;48.770;9.188;2022-07-03T16:32:19;27.20;58.80
796;DHT22;381;48.770;9.188;2022-07-03T16:37:25;27.20;59.00
796;DHT22;381;48.770;9.188;2022-07-03T16:42:33;27.20;58.70
796;DHT22;381;48.770;9.188;2022-07-03T16:47:41;27.20;59.00
796;DHT22;381;48.770;9.188;2022-07-03T16:52:45;27.20;63.10
796;DHT22;381;48.770;9.188;2022-07-03T16:57:50;27.10;60.60
796;DHT22;381;48.770;9.188;2022-07-03T17:02:54;27.00;59.40
796;DHT22;381;48.770;9.188;2022-07-03T17:07:58;27.00;60.30
796;DHT22;381;48.770;9.188;2022-07-03T17:13:02;27.00;59.90
796;DHT22;381;48.770;9.188;2022-07-03T17:18:06;26.90;59.80
796;DHT22;381;48.770;9.188;2022-07-03T17:23:10;26.90;60.40
796;DHT22;381;48.770;9.188;2022-07-03T17:28:15;26.80;62.50
796;DHT22;381;48.770;9.188;2022-07-03T17:33:18;26.70;62.00
796;DHT22;381;48.770;9.188;2022-07-03T17:38:21;26.60;62.60
796;DHT22;381;48.770;9.188;2022-07-03T17:43:25;26.60;62.20
796;DHT22;381;48.770;9.188;2022-07-03T17:48:29;26.50;59.90
796;DHT22;381;48.770;9.188;2022-07-03T17:53:32;26.50;62.00
796;DHT22;381;48.770;9.188;2022-07-03T17:58:39;26.40;63.50
796;DHT22;381;48.770;9.188;2022-07-03T18:03:42;26.40;62.90
796;DHT22;381;48.770;9.188;2022-07-03T18:08:45;26.30;63.70
796;DHT22;381;48.770;9.188;2022-07-03T18:13:54;26.30;64.10
796;DHT22;381;48.770;9.188;2022-07-03T18:18:59;26.20;61.40
796;DHT22;381;48.770;9.188;2022-07-03T18:24:03;26.20;61.90
796;DHT22;381;48.770;9.188;2022-07-03T18:29:08;26.20;63.20
796;DHT22;381;48.770;9.188;2022-07-03T18:34:16;26.10;61.70
796;DHT22;381;48.770;9.188;2022-07-03T18:39:19;26.10;63.40
796;DHT22;381;48.770;9.188;2022-07-03T18:44:26;26.00;63.80
796;DHT22;381;48.770;9.188;2022-07-03T18:49:32;25.90;65.80
796;DHT22;381;48.770;9.188;2022-07-03T18:54:41;25.80;65.40
796;DHT22;381;48.770;9.188;2022-07-03T18:59:52;25.70;66.80
796;DHT22;381;48.770;9.188;2022-07-03T19:04:59;25.60;66.60
796;DHT22;381;48.770;9.188;2022-07-03T19:10:03;25.50;67.10
796;DHT22;381;48.770;9.188;2022-07-03T19:15:08;25.50;66.80
796;DHT22;381;48.770;9.188;2022-07-03T19:20:11;25.40;69.60
796;DHT22;381;48.770;9.188;2022-07-03T19:25:13;25.30;69.30
796;DHT22;381;48.770;9.188;2022-07-03T19:30:17;25.20;69.50
796;DHT22;381;48.770;9.188;2022-07-03T19:35:19;25.10;70.00
796;DHT22;381;48.770;9.188;2022-07-03T19:40:22;25.00;70.00
796;DHT22;381;48.770;9.188;2022-07-03T19:45:25;24.90;71.20
796;DHT22;381;48.770;9.188;2022-07-03T19:50:28;24.80;71.50
796;DHT22;381;48.770;9.188;2022-07-03T19:55:30;24.60;70.90
796;DHT22;381;48.770;9.188;2022-07-03T20:00:35;24.50;71.40
796;DHT22;381;48.770;9.188;2022-07-03T20:05:37;24.40;71.60
796;DHT22;381;48.770;9.188;2022-07-03T20:10:39;24.30;71.90
796;DHT22;381;48.770;9.188;2022-07-03T20:15:43;24.20;72.40
796;DHT22;381;48.770;9.188;2022-07-03T20:20:45;24.10;72.90
796;DHT22;381;48.770;9.188;2022-07-03T20:25:47;24.00;72.80
796;DHT22;381;48.770;9.188;2022-07-03T20:30:57;23.90;73.10
796;DHT22;381;48.770;9.188;2022-07-03T20:35:59;23.90;73.40
796;DHT22;381;48.770;9.188;2022-07-03T20:41:01;23.80;74.20
796;DHT22;381;48.770;9.188;2022-07-03T20:46:05;23.70;74.20
796;DHT22;381;48.770;9.188;2022-07-03T20:51:07;23.70;74.80
796;DHT22;381;48.770;9.188;2022-07-03T20:56:09;23.60;74.20
796;DHT22;381;48.770;9.188;2022-07-03T21:01:13;23.60;73.80
796;DHT22;381;48.770;9.188;2022-07-03T21:06:15;23.60;74.40
796;DHT22;381;48.770;9.188;2022-07-03T21:11:25;23.60;74.20
796;DHT22;381;48.770;9.188;2022-07-03T21:16:35;23.60;74.90
796;DHT22;381;48.770;9.188;2022-07-03T21:21:38;23.60;75.40
796;DHT22;381;48.770;9.188;2022-07-03T21:26:41;23.60;74.90
796;DHT22;381;48.770;9.188;2022-07-03T21:31:46;23.60;75.40
796;DHT22;381;48.770;9.188;2022-07-03T21:36:48;23.50;78.60
796;DHT22;381;48.770;9.188;2022-07-03T21:41:50;23.50;76.40
796;DHT22;381;48.770;9.188;2022-07-03T21:46:54;23.40;76.70
796;DHT22;381;48.770;9.188;2022-07-03T21:51:56;23.40;76.00
796;DHT22;381;48.770;9.188;2022-07-03T21:56:58;23.30;76.30
796;DHT22;381;48.770;9.188;2022-07-03T22:02:01;23.30;77.30
796;DHT22;381;48.770;9.188;2022-07-03T22:07:04;23.20;78.70
796;DHT22;381;48.770;9.188;2022-07-03T22:12:07;23.20;78.70
796;DHT22;381;48.770;9.188;2022-07-03T22:17:28;23.10;77.60
796;DHT22;381;48.770;9.188;2022-07-03T22:22:30;23.10;79.60
796;DHT22;381;48.770;9.188;2022-07-03T22:27:33;23.00;77.30
796;DHT22;381;48.770;9.188;2022-07-03T22:32:39;23.00;81.40
796;DHT22;381;48.770;9.188;2022-07-03T22:37:42;23.00;77.10
796;DHT22;381;48.770;9.188;2022-07-03T22:42:45;23.00;78.80
796;DHT22;381;48.770;9.188;2022-07-03T22:47:49;22.90;78.80
796;DHT22;381;48.770;9.188;2022-07-03T22:52:51;22.90;80.00
796;DHT22;381;48.770;9.188;2022-07-03T22:57:53;22.90;80.20
796;DHT22;381;48.770;9.188;2022-07-03T23:02:57;22.90;80.00
796;DHT22;381;48.770;9.188;2022-07-03T23:07:59;22.90;81.20
796;DHT22;381;48.770;9.188;2022-07-03T23:13:01;22.80;81.90
796;DHT22;381;48.770;9.188;2022-07-03T23:18:05;22.80;82.50
796;DHT22;381;48.770;9.188;2022-07-03T23:23:07;22.80;82.10
796;DHT22;381;48.770;9.188;2022-07-03T23:28:09;22.80;80.30
796;DHT22;381;48.770;9.188;2022-07-03T23:33:12;22.80;81.80
796;DHT22;381;48.770;9.188;2022-07-03T23:38:14;22.90;82.50
796;DHT22;381;48.770;9.188;2022-07-03T23:43:17;22.90;84.30
796;DHT22;381;48.770;9.188;2022-07-03T23:48:20;23.00;83.70
796;DHT22;381;48.770;9.188;2022-07-03T23:53:40;23.10;84.80
796;DHT22;381;48.770;9.188;2022-07-03T23:58:42;23.10;85.60
